Time;durP1;ratioP1;P1;durP2;ratioP2;P2;SDS_P1;SDS_P2;PMS_P1;PMS_P2;Temp;Humidity;BMP_temperature;BMP_pressure;BME280_temperature;BME280_humidity;BME280_pressure;Samples;Min_cycle;Max_cycle;Signal;HPM_P1;HPM_P2
2021/04/12 00:00:23;;;;;;;11.23;6.28;;;;;;;7.54;54.57;100467.53;5050949;28;20029;-37
2021/04/12 00:02:49;;;;;;;10.38;5.80;;;;;;;7.71;53.02;100468.34;5050753;28;20033;-38
2021/04/12 00:05:40;;;;;;;10.43;5.60;;;;;;;7.55;52.44;100460.41;5049512;28;20044;-38
2021/04/12 00:08:33;;;;;;;8.95;5.90;;;;;;;7.40;53.96;100461.03;5035266;28;20450;-38
2021/04/12 00:11:29;;;;;;;9.60;5.97;;;;;;;7.43;53.25;100458.06;5049085;28;20044;-38
2021/04/12 00:13:59;;;;;;;17.25;6.32;;;;;;;7.55;53.90;100452.44;5050606;28;20039;-36
2021/04/12 00:16:30;;;;;;;54.03;9.55;;;;;;;7.32;53.78;100449.63;5044942;28;20048;-37
2021/04/12 00:18:59;;;;;;;38.75;8.65;;;;;;;7.45;52.55;100447.31;5047603;28;20086;-38
2021/04/12 00:21:30;;;;;;;41.28;8.15;;;;;;;7.50;53.13;100452.09;5029450;28;20029;-37
2021/04/12 00:24:09;;;;;;;49.58;8.93;;;;;;;7.34;54.78;100453.75;5013679;28;20172;-36
2021/04/12 00:26:47;;;;;;;32.78;8.10;;;;;;;7.34;54.30;100453.75;5014575;28;20071;-37
2021/04/12 00:29:18;;;;;;;12.77;4.90;;;;;;;7.47;50.61;100449.81;5033195;28;20528;-37
2021/04/12 00:32:04;;;;;;;10.23;4.93;;;;;;;7.62;50.37;100443.66;5050571;28;20032;-38
2021/04/12 00:34:51;;;;;;;9.32;5.18;;;;;;;7.66;49.52;100444.16;5049301;28;20033;-37
2021/04/12 00:37:28;;;;;;;15.35;5.65;;;;;;;7.52;51.73;100443.03;5048857;28;20070;-37
2021/04/12 00:40:25;;;;;;;14.43;6.00;;;;;;;7.35;52.81;100431.59;5049052;28;20433;-36
2021/04/12 00:43:02;;;;;;;16.30;5.95;;;;;;;7.35;53.02;100433.41;5047210;28;20033;-37
2021/04/12 00:46:12;;;;;;;11.68;5.47;;;;;;;7.43;50.98;100430.78;5048761;28;20519;-37
2021/04/12 00:48:55;;;;;;;12.27;5.35;;;;;;;7.43;50.77;100436.06;5048903;28;20116;-37
2021/04/12 00:51:36;;;;;;;11.35;5.55;;;;;;;7.37;51.16;100426.16;5049971;28;20349;-37
2021/04/12 00:54:20;;;;;;;13.75;5.65;;;;;;;7.26;51.63;100426.47;5049908;28;20463;-37
2021/04/12 00:56:52;;;;;;;18.52;6.25;;;;;;;7.19;52.74;100423.63;5050110;28;20021;-37
2021/04/12 00:59:34;;;;;;;10.35;5.18;;;;;;;7.34;50.83;100429.94;5033121;28;20017;-37
2021/04/12 01:02:37;;;;;;;10.52;5.45;;;;;;;7.18;51.74;100417.53;5050159;28;20032;-37
2021/04/12 01:05:42;;;;;;;11.55;5.60;;;;;;;7.11;52.87;100418.34;5050027;28;20021;-37
2021/04/12 01:08:38;;;;;;;10.82;5.78;;;;;;;7.02;54.31;100420.97;5033700;28;20021;-37
2021/04/12 01:11:25;;;;;;;14.55;5.55;;;;;;;6.99;53.74;100409.91;5049601;28;20467;-36
2021/04/12 01:14:28;;;;;;;11.80;5.80;;;;;;;7.11;53.46;100419.16;5050007;28;20025;-37
2021/04/12 01:16:53;;;;;;;14.63;7.65;;;;;;;6.97;54.90;100410.06;5049681;28;20362;-37
2021/04/12 01:19:56;;;;;;;20.75;7.25;;;;;;;7.08;56.19;100410.72;5049919;28;20082;-37
2021/04/12 01:22:55;;;;;;;14.07;6.55;;;;;;;6.80;56.51;100413.69;5049681;28;20043;-37
2021/04/12 01:25:50;;;;;;;20.25;6.68;;;;;;;6.69;57.05;100412.16;5049718;28;20191;-37
2021/04/12 01:28:34;;;;;;;13.23;6.82;;;;;;;6.57;57.23;100403.72;5048377;28;20516;-37
2021/04/12 01:31:18;;;;;;;21.27;8.18;;;;;;;6.38;58.43;100404.00;5049833;28;20376;-38
2021/04/12 01:33:49;;;;;;;14.93;6.88;;;;;;;6.45;57.65;100397.91;5049560;28;20029;-37
2021/04/12 01:36:24;;;;;;;18.77;6.75;;;;;;;6.50;58.15;100397.41;5048379;28;20492;-38
2021/04/12 01:39:34;;;;;;;18.77;6.65;;;;;;;6.53;57.81;100397.09;5049440;28;20459;-37
2021/04/12 01:42:47;;;;;;;12.85;7.10;;;;;;;6.68;57.24;100405.19;5040924;28;20033;-37
2021/04/12 01:45:36;;;;;;;14.32;6.82;;;;;;;6.73;56.55;100404.72;5011136;28;20034;-37
2021/04/12 01:48:26;;;;;;;19.40;7.03;;;;;;;6.64;56.75;100403.88;5053494;28;20025;-37
2021/04/12 01:51:40;;;;;;;12.88;6.82;;;;;;;6.61;57.22;100396.28;5051276;28;20552;-37
2021/04/12 01:54:42;;;;;;;13.82;6.88;;;;;;;6.65;56.86;100395.78;5043745;28;20159;-38
2021/04/12 01:57:17;;;;;;;15.88;7.53;;;;;;;6.33;57.64;100387.75;5053089;28;20055;-37
2021/04/12 02:00:20;;;;;;;15.48;7.30;;;;;;;6.51;58.06;100392.94;5051881;28;20021;-37
2021/04/12 02:03:09;;;;;;;16.65;7.60;;;;;;;6.49;58.33;100394.91;5051853;28;20025;-37
2021/04/12 02:05:37;;;;;;;12.60;7.68;;;;;;;6.43;58.64;100396.38;5051619;28;20032;-38
2021/04/12 02:08:18;;;;;;;19.10;8.95;;;;;;;6.34;59.02;100390.25;5053005;28;20423;-38
2021/04/12 02:10:59;;;;;;;15.38;8.65;;;;;;;6.45;58.76;100391.75;5051347;28;20037;-38
2021/04/12 02:13:39;;;;;;;15.13;8.32;;;;;;;6.46;58.81;100390.78;5052842;28;20036;-38
2021/04/12 02:16:11;;;;;;;15.60;8.00;;;;;;;6.35;58.85;100388.44;5052933;28;20021;-37
2021/04/12 02:18:39;;;;;;;18.55;8.30;;;;;;;6.25;59.84;100389.38;5052853;28;20033;-37
2021/04/12 02:21:42;;;;;;;18.83;8.77;;;;;;;6.17;59.29;100386.72;5052619;28;20051;-37
2021/04/12 02:24:29;;;;;;;19.88;9.10;;;;;;;6.23;59.45;100401.94;5053165;28;20096;-37
2021/04/12 02:26:57;;;;;;;19.45;9.25;;;;;;;6.00;60.07;100395.56;5052682;28;20009;-38
2021/04/12 02:29:30;;;;;;;21.77;11.13;;;;;;;6.16;60.33;100392.16;5051241;28;20028;-38
2021/04/12 02:32:32;;;;;;;20.58;10.27;;;;;;;5.65;61.72;100378.81;5035121;28;20504;-38
2021/04/12 02:35:12;;;;;;;24.03;11.03;;;;;;;5.59;62.67;100388.19;5051390;28;20032;-38
2021/04/12 02:38:00;;;;;;;23.85;12.70;;;;;;;5.63;62.69;100383.41;5052553;28;20031;-38
2021/04/12 02:40:47;;;;;;;23.10;12.02;;;;;;;5.58;63.00;100388.34;5051242;28;20044;-38
2021/04/12 02:44:06;;;;;;;23.48;12.90;;;;;;;5.58;62.94;100383.06;5052268;28;20052;-38
2021/04/12 02:46:56;;;;;;;23.83;13.10;;;;;;;5.30;63.89;100383.22;4990596;28;20491;-37
2021/04/12 02:49:32;;;;;;;25.17;13.10;;;;;;;6.30;60.77;100383.59;5029596;28;20048;-38
2021/04/12 02:52:09;;;;;;;28.70;15.35;;;;;;;5.93;61.87;100381.28;5032039;28;20074;-37
2021/04/12 02:55:03;;;;;;;29.23;14.75;;;;;;;5.79;62.58;100372.16;5032239;28;20044;-37
2021/04/12 02:57:37;;;;;;;30.80;14.60;;;;;;;5.57;63.79;100370.84;5032142;28;20469;-37
2021/04/12 03:00:34;;;;;;;35.25;17.08;;;;;;;5.52;63.63;100367.84;5032285;28;20029;-37
2021/04/12 03:03:11;;;;;;;33.80;16.30;;;;;;;5.99;62.72;100370.13;5011076;28;20461;-37
2021/04/12 03:06:19;;;;;;;31.27;16.98;;;;;;;6.44;60.24;100364.50;5032095;28;20191;-37
2021/04/12 03:09:21;;;;;;;60.70;31.58;;;;;;;5.89;62.58;100359.63;5030621;28;20041;-37
2021/04/12 03:12:05;;;;;;;;;;;;;;;5.70;63.01;100362.53;5032007;28;20033;-37
2021/04/12 03:14:51;;;;;;;62.00;28.30;;;;;;;5.46;63.96;100369.28;5031356;28;19909;-37
2021/04/12 03:17:44;;;;;;;32.05;17.23;;;;;;;5.56;62.71;100358.63;5031387;28;20041;-38
2021/04/12 03:20:35;;;;;;;33.15;15.68;;;;;;;5.40;63.56;100368.09;5031655;28;20033;-38
2021/04/12 03:23:15;;;;;;;33.67;16.97;;;;;;;5.57;63.37;100355.00;5030249;28;20037;-37
2021/04/12 03:25:59;;;;;;;33.78;17.27;;;;;;;5.38;63.85;100362.13;5014464;28;20286;-38
2021/04/12 03:28:41;;;;;;;33.10;17.20;;;;;;;6.30;60.58;100359.00;5031583;28;20029;-37
2021/04/12 03:31:34;;;;;;;27.50;16.27;;;;;;;5.78;62.38;100360.72;5030251;28;20087;-37
2021/04/12 03:34:27;;;;;;;105.70;48.38;;;;;;;5.45;63.43;100362.38;5031324;28;20088;-37
2021/04/12 03:37:17;;;;;;;40.28;19.33;;;;;;;5.51;63.91;100358.28;5015138;28;20067;-37
2021/04/12 03:40:16;;;;;;;31.02;16.55;;;;;;;5.52;64.59;100357.28;5031323;28;20083;-39
2021/04/12 03:43:12;;;;;;;30.15;17.63;;;;;;;6.36;61.20;100361.84;5031406;28;20136;-38
2021/04/12 03:45:41;;;;;;;29.58;16.27;;;;;;;6.05;62.32;100353.63;5034381;28;20108;-38
2021/04/12 03:48:34;;;;;;;28.30;15.93;;;;;;;5.91;62.77;100357.66;5040978;28;20037;-38
2021/04/12 03:51:37;;;;;;;33.75;16.67;;;;;;;5.76;63.02;100362.72;5030906;28;20025;-38
2021/04/12 03:54:37;;;;;;;33.63;15.63;;;;;;;5.64;63.68;100364.78;5030278;28;20064;-37
2021/04/12 03:57:25;;;;;;;33.15;16.25;;;;;;;5.77;63.52;100360.88;5028679;28;20082;-38
2021/04/12 03:59:51;;;;;;;29.10;15.85;;;;;;;5.91;63.20;100364.78;5044082;28;20180;-37
2021/04/12 04:02:38;;;;;;;39.58;17.23;;;;;;;6.11;62.82;100365.38;5050242;28;20389;-38
2021/04/12 04:05:31;;;;;;;42.70;18.70;;;;;;;5.94;63.49;100361.78;5049742;28;20517;-38
2021/04/12 04:08:08;;;;;;;31.30;16.40;;;;;;;5.87;63.11;100365.06;5050387;28;20242;-38
2021/04/12 04:10:55;;;;;;;40.97;17.92;;;;;;;6.15;62.93;100354.34;5050118;28;20064;-38
2021/04/12 04:14:03;;;;;;;40.40;18.00;;;;;;;6.46;61.76;100369.63;5049915;28;20250;-38
2021/04/12 04:16:40;;;;;;;60.30;28.33;;;;;;;6.42;62.45;100363.00;5047196;28;20021;-38
2021/04/12 04:19:23;;;;;;;40.67;18.20;;;;;;;6.60;61.13;100374.28;5028420;28;20480;-38
2021/04/12 04:22:11;;;;;;;42.30;18.00;;;;;;;6.69;61.67;100369.84;5030065;28;20113;-37
2021/04/12 04:25:01;;;;;;;52.20;19.83;;;;;;;6.85;60.90;100372.53;5030364;28;20103;-37
2021/04/12 04:28:08;;;;;;;50.08;22.45;;;;;;;7.27;59.30;100383.91;5037452;28;20025;-38
2021/04/12 04:31:24;;;;;;;53.10;23.63;;;;;;;7.19;60.89;100378.63;4999790;28;20075;-39
2021/04/12 04:33:58;;;;;;;58.10;26.38;;;;;;;7.08;59.96;100386.91;5005087;28;20041;-37
2021/04/12 04:37:01;;;;;;;62.80;27.35;;;;;;;7.49;58.71;100394.84;5038448;28;20025;-38
2021/04/12 04:39:49;;;;;;;67.03;28.40;;;;;;;7.59;58.57;100393.66;5038808;28;20035;-37
2021/04/12 04:42:27;;;;;;;62.65;30.35;;;;;;;7.60;57.49;100382.09;5028710;28;20037;-38
2021/04/12 04:45:11;;;;;;;57.83;28.25;;;;;;;8.77;57.04;100390.25;5026538;28;20029;-37
2021/04/12 04:47:55;;;;;;;56.65;29.33;;;;;;;8.65;55.02;100378.38;5034167;28;20108;-38
2021/04/12 04:50:23;;;;;;;70.40;28.83;;;;;;;8.94;54.15;100384.81;5047570;28;20404;-37
2021/04/12 04:53:20;;;;;;;56.40;26.20;;;;;;;8.86;54.79;100379.59;5047542;28;20029;-37
2021/04/12 04:56:09;;;;;;;48.67;23.30;;;;;;;9.01;53.53;100380.47;5049090;28;20025;-38
2021/04/12 04:58:43;;;;;;;52.75;24.20;;;;;;;9.21;53.58;100391.41;5047833;28;20044;-38
2021/04/12 05:01:11;;;;;;;49.03;23.02;;;;;;;9.31;53.22;100386.69;5049255;28;20025;-37
2021/04/12 05:03:39;;;;;;;41.38;21.55;;;;;;;9.47;52.54;100384.91;5049468;28;20035;-38
2021/04/12 05:06:31;;;;;;;45.08;22.02;;;;;;;9.68;52.32;100387.66;5049217;28;20031;-39
2021/04/12 05:09:19;;;;;;;50.03;23.42;;;;;;;9.70;51.81;100387.50;5047680;28;20361;-38
2021/04/12 05:11:55;;;;;;;78.22;32.40;;;;;;;9.90;51.38;100385.09;5049168;28;20598;-38
2021/04/12 05:14:33;;;;;;;62.25;29.23;;;;;;;10.17;50.89;100381.00;5049175;28;20111;-38
2021/04/12 05:17:17;;;;;;;58.88;28.67;;;;;;;10.43;50.42;100382.34;5051407;28;20033;-38
2021/04/12 05:20:03;;;;;;;81.15;40.03;;;;;;;10.34;49.08;100393.09;5053326;28;20025;-38
2021/04/12 05:23:00;;;;;;;82.70;40.92;;;;;;;10.47;47.82;100384.47;5051526;28;20021;-38
2021/04/12 05:25:43;;;;;;;40.03;20.48;;;;;;;10.32;47.37;100389.00;5053179;28;20381;-38
2021/04/12 05:28:27;;;;;;;31.73;15.30;;;;;;;10.49;44.74;100385.09;5053115;28;20500;-37
2021/04/12 05:31:00;;;;;;;33.40;15.55;;;;;;;10.56;45.30;100383.31;5051253;28;20465;-38
2021/04/12 05:34:04;;;;;;;24.60;12.80;;;;;;;10.88;43.28;100386.53;5051296;28;20141;-38
2021/04/12 05:36:41;;;;;;;33.97;14.80;;;;;;;11.05;42.62;100380.94;5024401;28;20094;-37
2021/04/12 05:39:40;;;;;;;25.05;11.35;;;;;;;11.22;40.14;100370.84;5053194;28;20147;-37
2021/04/12 05:42:14;;;;;;;23.65;11.70;;;;;;;11.48;39.20;100379.06;5053040;28;20036;-38
2021/04/12 05:45:21;;;;;;;24.33;12.75;;;;;;;11.95;37.97;100379.38;5034843;28;20385;-38
2021/04/12 05:48:04;;;;;;;34.60;19.67;;;;;;;11.91;39.13;100378.94;5038976;28;20596;-38
2021/04/12 05:50:35;;;;;;;21.10;12.25;;;;;;;12.27;37.97;100375.22;5052791;28;20032;-38
2021/04/12 05:53:38;;;;;;;23.77;13.20;;;;;;;12.65;36.92;100369.38;5052506;28;20143;-38
2021/04/12 05:56:03;;;;;;;;;;;;;;;12.28;38.45;100370.69;5053282;28;20044;-38
2021/04/12 05:58:50;;;;;;;29.60;13.93;;;;;;;12.00;39.55;100373.47;5052896;28;19908;-38
2021/04/12 06:01:44;;;;;;;32.60;15.25;;;;;;;12.03;40.53;100365.03;5052775;28;20047;-37
2021/04/12 06:04:31;;;;;;;32.85;16.70;;;;;;;11.94;41.76;100372.41;5051532;28;20054;-38
2021/04/12 06:07:30;;;;;;;33.53;17.92;;;;;;;11.71;42.96;100373.47;5052513;28;20067;-38
2021/04/12 06:10:20;;;;;;;43.40;18.17;;;;;;;11.68;42.71;100376.50;5052192;28;20519;-38
2021/04/12 06:13:08;;;;;;;35.63;17.38;;;;;;;11.54;43.43;100370.28;5052799;28;20040;-38
2021/04/12 06:15:36;;;;;;;35.38;16.98;;;;;;;11.69;42.89;100377.31;5052407;28;20039;-36
2021/04/12 06:18:28;;;;;;;37.72;17.60;;;;;;;12.16;41.35;100369.63;5052549;28;20083;-39
2021/04/12 06:20:56;;;;;;;36.70;17.25;;;;;;;12.35;41.27;100373.41;5051058;28;20061;-37
2021/04/12 06:23:41;;;;;;;40.65;18.88;;;;;;;12.68;40.86;100368.19;5052205;28;20445;-38
2021/04/12 06:26:28;;;;;;;41.95;19.60;;;;;;;13.31;39.75;100357.16;5052190;28;20036;-38
2021/04/12 06:29:17;;;;;;;37.75;18.52;;;;;;;13.52;40.22;100361.47;5051901;28;20025;-39
2021/04/12 06:32:02;;;;;;;38.90;19.23;;;;;;;13.77;39.66;100350.09;5052247;28;20154;-38
2021/04/12 06:34:49;;;;;;;37.67;19.20;;;;;;;14.27;38.81;100361.03;5050929;28;20029;-39
2021/04/12 06:37:19;;;;;;;37.70;19.42;;;;;;;14.43;38.51;100363.25;5050476;28;20029;-38
2021/04/12 06:40:06;;;;;;;40.45;19.30;;;;;;;14.27;39.44;100359.19;5050239;28;20033;-38
2021/04/12 06:42:56;;;;;;;35.05;19.45;;;;;;;15.49;36.60;100360.88;5051796;28;20041;-38
2021/04/12 06:45:46;;;;;;;39.13;19.98;;;;;;;15.31;37.11;100356.28;5051950;28;20048;-38
2021/04/12 06:48:45;;;;;;;40.88;20.15;;;;;;;14.77;38.28;100355.03;5051024;28;20036;-39
2021/04/12 06:51:37;;;;;;;40.95;20.10;;;;;;;15.15;37.72;100360.31;5040855;28;20045;-39
2021/04/12 06:54:33;;;;;;;35.53;19.13;;;;;;;15.44;37.04;100361.53;5031740;28;20481;-37
2021/04/12 06:57:33;;;;;;;44.65;22.98;;;;;;;15.60;37.18;100354.78;5031768;28;20490;-39
2021/04/12 07:00:22;;;;;;;37.35;19.40;;;;;;;15.88;36.31;100345.44;5031577;28;20068;-39
2021/04/12 07:03:09;;;;;;;36.72;19.88;;;;;;;16.00;35.98;100338.28;5030178;28;20124;-38
2021/04/12 07:05:56;;;;;;;35.70;20.15;;;;;;;15.89;35.73;100332.84;5031357;28;20564;-38
2021/04/12 07:08:57;;;;;;;38.83;19.88;;;;;;;16.19;35.57;100331.03;5031040;28;20030;-38
2021/04/12 07:11:50;;;;;;;40.13;20.13;;;;;;;16.66;34.06;100335.78;5011647;28;20096;-39
2021/04/12 07:14:54;;;;;;;32.85;19.02;;;;;;;16.53;35.28;100323.34;5031258;28;20021;-39
2021/04/12 07:17:41;;;;;;;37.40;16.88;;;;;;;17.11;34.84;100326.41;5008114;28;20095;-39
2021/04/12 07:20:19;;;;;;;33.30;17.95;;;;;;;17.07;35.12;100309.91;5030011;28;20033;-39
2021/04/12 07:23:22;;;;;;;31.60;16.83;;;;;;;17.50;34.13;100316.03;5029876;28;20116;-39
2021/04/12 07:26:17;;;;;;;38.78;21.58;;;;;;;17.56;33.15;100317.75;5031082;28;20101;-37
2021/04/12 07:29:07;;;;;;;24.17;13.95;;;;;;;17.72;32.07;100310.84;5001268;28;20386;-39
2021/04/12 07:31:38;;;;;;;28.10;13.30;;;;;;;17.67;32.29;100314.25;5031527;28;20061;-38
2021/04/12 07:34:22;;;;;;;24.33;12.48;;;;;;;18.01;32.01;100314.44;5031021;28;20493;-38
2021/04/12 07:37:09;;;;;;;15.48;8.40;;;;;;;18.08;31.05;100316.97;5031018;28;20074;-38
2021/04/12 07:40:16;;;;;;;24.15;10.23;;;;;;;18.20;30.35;100309.69;5030032;28;20166;-39
2021/04/12 07:43:18;;;;;;;14.98;9.90;;;;;;;17.86;31.21;100306.03;5003857;28;20041;-39
2021/04/12 07:46:11;;;;;;;14.30;7.95;;;;;;;17.68;30.42;100304.28;5030845;28;20048;-38
2021/04/12 07:49:10;;;;;;;14.20;8.95;;;;;;;17.44;31.67;100295.41;5045949;28;20036;-40
2021/04/12 07:51:57;;;;;;;14.70;8.52;;;;;;;17.48;32.34;100297.41;5050821;28;20477;-39
2021/04/12 07:54:49;;;;;;;12.98;7.85;;;;;;;17.23;31.58;100291.44;5051024;28;20120;-39
2021/04/12 07:57:36;;;;;;;18.50;11.20;;;;;;;17.23;31.82;100273.47;5050718;28;20102;-38
2021/04/12 08:00:04;;;;;;;18.92;8.40;;;;;;;17.18;32.82;100271.47;5050349;28;20035;-38
2021/04/12 08:02:39;;;;;;;14.25;7.68;;;;;;;17.04;32.33;100262.00;5050558;28;20025;-39
2021/04/12 08:05:29;;;;;;;15.25;7.07;;;;;;;16.79;32.55;100263.00;5049200;28;20020;-39
2021/04/12 08:07:54;;;;;;;16.63;8.10;;;;;;;16.88;33.10;100262.69;5050637;28;20043;-39
2021/04/12 08:10:57;;;;;;;11.82;7.10;;;;;;;16.98;32.51;100252.16;5050132;28;20049;-38
2021/04/12 08:13:53;;;;;;;11.63;6.50;;;;;;;17.12;33.08;100250.88;5050397;28;20086;-39
2021/04/12 08:16:50;;;;;;;13.75;6.72;;;;;;;17.29;32.26;100244.81;5049311;28;20045;-38
2021/04/12 08:19:37;;;;;;;9.45;5.88;;;;;;;17.02;32.12;100242.59;5050091;28;20398;-38
2021/04/12 08:22:23;;;;;;;10.68;6.18;;;;;;;17.29;31.72;100236.75;5041933;28;20076;-51
2021/04/12 08:25:07;;;;;;;9.80;5.88;;;;;;;17.11;32.00;100232.28;5035435;28;20037;-51
2021/04/12 08:27:51;;;;;;;9.00;6.03;;;;;;;17.23;32.23;100227.75;5037157;28;20024;-49
2021/04/12 08:30:35;;;;;;;10.75;5.78;;;;;;;17.31;31.98;100224.69;5043595;28;20509;-51
2021/04/12 08:33:07;;;;;;;9.52;5.72;;;;;;;17.05;32.48;100219.81;5029930;28;20025;-51
2021/04/12 08:35:59;;;;;;;10.13;5.72;;;;;;;17.13;32.43;100216.75;5035313;28;20037;-50
2021/04/12 08:38:43;;;;;;;15.80;6.75;;;;;;;16.87;32.69;100216.19;5049242;28;20025;-49
2021/04/12 08:41:31;;;;;;;13.48;6.93;;;;;;;16.90;33.15;100217.56;5048282;28;20031;-49
2021/04/12 08:44:21;;;;;;;11.55;7.10;;;;;;;17.02;33.11;100204.97;5049560;28;20104;-51
2021/04/12 08:47:04;;;;;;;12.98;7.32;;;;;;;17.34;32.57;100199.19;5050295;28;20033;-51
2021/04/12 08:49:41;;;;;;;10.90;6.63;;;;;;;17.83;31.47;100194.25;5028892;28;20488;-51
2021/04/12 08:52:43;;;;;;;13.38;7.07;;;;;;;17.84;31.18;100186.97;5029951;28;20186;-51
2021/04/12 08:55:30;;;;;;;11.52;6.57;;;;;;;17.17;32.33;100178.41;5030587;28;20110;-53
2021/04/12 08:58:12;;;;;;;10.80;7.00;;;;;;;17.84;32.10;100176.19;5030608;28;20469;-50
2021/04/12 09:01:06;;;;;;;12.43;6.82;;;;;;;17.35;32.36;100176.63;5029009;28;20485;-52
2021/04/12 09:04:09;;;;;;;15.52;7.35;;;;;;;17.93;31.09;100177.47;5029832;28;20022;-53
2021/04/12 09:06:37;;;;;;;12.30;8.18;;;;;;;17.78;32.04;100176.13;5050491;28;20021;-50
2021/04/12 09:09:10;;;;;;;13.60;7.75;;;;;;;18.30;31.43;100168.97;5049588;28;20098;-51
2021/04/12 09:11:51;;;;;;;18.83;8.82;;;;;;;17.63;32.69;100156.16;5047954;28;20426;-51
2021/04/12 09:14:45;;;;;;;14.82;7.53;;;;;;;18.08;31.74;100158.91;5047716;28;20108;-51
2021/04/12 09:18:04;;;;;;;10.00;6.15;;;;;;;18.43;30.58;100149.81;5048951;28;20021;-48
2021/04/12 09:20:39;;;;;;;13.95;8.30;;;;;;;18.75;31.24;100146.47;5045185;28;20041;-50
2021/04/12 09:23:26;;;;;;;16.02;8.48;;;;;;;19.14;30.14;100144.63;5049365;28;20116;-50
2021/04/12 09:26:28;;;;;;;15.63;8.05;;;;;;;19.63;29.79;100141.16;5049076;28;20108;-53
2021/04/12 09:29:31;;;;;;;14.23;7.13;;;;;;;19.82;29.56;100141.66;5049483;28;20430;-49
2021/04/12 09:32:18;;;;;;;14.02;6.80;;;;;;;19.98;28.83;100134.50;5049268;28;20057;-52
2021/04/12 09:35:05;;;;;;;11.63;7.13;;;;;;;20.05;27.98;100131.59;5049187;28;20021;-51
2021/04/12 09:37:52;;;;;;;11.65;6.97;;;;;;;20.11;28.43;100127.88;5047476;28;20032;-49
2021/04/12 09:40:34;;;;;;;11.45;6.32;;;;;;;20.25;27.93;100120.13;5048730;28;20021;-49
2021/04/12 09:43:08;;;;;;;9.02;5.72;;;;;;;20.15;27.44;100115.47;5047985;28;20035;-49
2021/04/12 09:46:12;;;;;;;14.38;5.90;;;;;;;20.43;26.79;100106.22;5049410;28;20075;-50
2021/04/12 09:48:41;;;;;;;10.57;6.15;;;;;;;20.05;27.75;100108.09;5007098;28;20026;-51
2021/04/12 09:51:36;;;;;;;12.15;6.00;;;;;;;20.25;27.28;100106.63;5021344;28;20045;-48
2021/04/12 09:54:20;;;;;;;12.88;6.50;;;;;;;20.23;28.53;100101.47;5027922;28;20176;-50
2021/04/12 09:57:22;;;;;;;15.52;6.20;;;;;;;20.65;28.25;100098.00;5029219;28;20080;-51
2021/04/12 10:00:11;;;;;;;12.77;6.10;;;;;;;20.70;27.30;100089.13;5029417;28;20049;-49
2021/04/12 10:03:15;;;;;;;9.48;5.35;;;;;;;20.61;27.41;100086.09;5030301;28;20052;-52
2021/04/12 10:06:14;;;;;;;12.57;6.18;;;;;;;20.79;26.76;100073.19;5032571;28;20029;-52
2021/04/12 10:08:53;;;;;;;14.48;6.28;;;;;;;20.66;26.96;100067.19;5031387;28;20032;-51
2021/04/12 10:11:20;;;;;;;14.70;5.95;;;;;;;20.50;26.92;100054.63;5047045;28;20037;-52
2021/04/12 10:14:22;;;;;;;10.73;6.40;;;;;;;20.27;27.23;100064.75;5031014;28;20072;-50
2021/04/12 10:17:02;;;;;;;10.40;6.15;;;;;;;20.73;26.58;100055.31;5031193;28;20026;-50
2021/04/12 10:19:50;;;;;;;10.82;6.47;;;;;;;20.86;26.94;100049.44;5031218;28;20060;-50
2021/04/12 10:22:17;;;;;;;9.77;5.90;;;;;;;20.82;27.17;100018.59;5032952;28;20026;-50
2021/04/12 10:24:59;;;;;;;13.32;6.20;;;;;;;20.75;28.08;100042.34;5031187;28;20076;-50
2021/04/12 10:27:40;;;;;;;12.45;7.00;;;;;;;20.55;28.98;100033.03;5031988;28;20021;-51
2021/04/12 10:30:12;;;;;;;13.48;6.88;;;;;;;20.15;29.26;100039.03;5031088;28;20367;-48
2021/04/12 10:32:45;;;;;;;16.45;7.38;;;;;;;20.21;29.71;100035.28;5032327;28;20491;-49
2021/04/12 10:35:33;;;;;;;13.60;7.15;;;;;;;20.30;29.71;100026.41;5015987;28;20033;-52
2021/04/12 10:38:09;;;;;;;15.75;7.47;;;;;;;19.98;29.62;100033.75;5041339;28;20032;-49
2021/04/12 10:40:43;;;;;;;15.93;7.65;;;;;;;19.97;29.39;100026.72;5028987;28;20235;-51
2021/04/12 10:43:19;;;;;;;13.20;7.35;;;;;;;20.29;28.80;100013.16;5014342;28;20029;-50
2021/04/12 10:46:03;;;;;;;13.95;7.15;;;;;;;19.80;30.32;100016.88;5042543;28;20067;-53
2021/04/12 10:48:39;;;;;;;11.88;7.00;;;;;;;20.95;29.25;100020.81;5037656;28;20045;-52
2021/04/12 10:51:05;;;;;;;12.95;7.53;;;;;;;20.71;29.08;100015.03;5021279;28;20057;-54
2021/04/12 10:53:58;;;;;;;14.25;7.60;;;;;;;20.17;29.84;100017.97;5032407;28;20429;-52
2021/04/12 10:56:46;;;;;;;13.88;7.53;;;;;;;21.46;27.85;100020.16;5032579;28;20014;-54
2021/04/12 10:59:50;;;;;;;11.07;7.13;;;;;;;21.48;27.57;100021.50;5032509;28;20057;-49
2021/04/12 11:02:21;;;;;;;13.20;6.80;;;;;;;21.84;26.87;100021.50;4952362;29;20102;-51
2021/04/12 11:04:55;;;;;;;12.45;7.00;;;;;;;22.50;26.28;100011.66;5020020;28;20033;-53
2021/04/12 11:07:38;;;;;;;13.95;6.70;;;;;;;22.34;26.57;100015.50;5014163;28;20083;-51
2021/04/12 11:10:12;;;;;;;9.27;6.47;;;;;;;21.71;27.75;100003.09;5030377;28;20041;-51
2021/04/12 11:12:50;;;;;;;10.45;6.78;;;;;;;22.00;26.96;100016.09;5031985;28;20030;-51
2021/04/12 11:15:33;;;;;;;14.02;7.47;;;;;;;22.35;26.70;100009.00;5013429;28;20030;-51
2021/04/12 11:18:17;;;;;;;12.38;6.97;;;;;;;21.44;27.42;100001.47;5030611;28;20021;-51
2021/04/12 11:20:57;;;;;;;16.17;7.18;;;;;;;22.12;27.69;100003.03;5030544;28;20025;-51
2021/04/12 11:23:37;;;;;;;10.05;6.78;;;;;;;22.62;26.79;99987.75;5020423;28;20413;-51
2021/04/12 11:26:19;;;;;;;14.75;7.30;;;;;;;22.01;27.00;99991.44;5026955;28;20156;-53
2021/04/12 11:28:52;;;;;;;10.80;6.38;;;;;;;22.40;26.33;99974.53;5042183;28;20021;-51
2021/04/12 11:31:54;;;;;;;12.25;6.53;;;;;;;22.89;26.88;99983.84;5022799;28;20068;-52
2021/04/12 11:34:35;;;;;;;12.77;7.60;;;;;;;21.77;28.62;99976.81;5027295;28;20484;-50
2021/04/12 11:37:17;;;;;;;16.17;7.70;;;;;;;21.65;28.65;99980.63;5040716;28;20017;-53
2021/04/12 11:39:50;;;;;;;16.17;7.95;;;;;;;22.18;27.99;99969.44;5039116;28;20219;-51
2021/04/12 11:42:17;;;;;;;13.88;7.75;;;;;;;21.40;29.14;99964.31;5043129;28;20108;-52
2021/04/12 11:44:52;;;;;;;15.15;8.10;;;;;;;21.38;29.59;99961.91;5039536;28;20021;-52
2021/04/12 11:47:34;;;;;;;12.77;8.65;;;;;;;22.12;28.59;99965.09;5033877;28;20025;-52
2021/04/12 11:50:20;;;;;;;13.38;8.05;;;;;;;21.49;29.09;99962.75;5052184;28;20074;-49
2021/04/12 11:53:19;;;;;;;15.57;8.30;;;;;;;21.51;28.44;99954.34;5051557;28;20107;-50
2021/04/12 11:55:54;;;;;;;11.73;7.78;;;;;;;22.00;28.11;99946.44;5043960;28;20083;-51
2021/04/12 11:58:28;;;;;;;10.43;7.68;;;;;;;21.34;28.75;99941.84;5023407;28;20035;-53
2021/04/12 12:01:27;;;;;;;12.50;7.50;;;;;;;21.20;29.54;99940.78;5048858;28;20385;-51
2021/04/12 12:04:19;;;;;;;13.02;7.65;;;;;;;21.85;28.76;99936.44;5050485;28;20021;-48
2021/04/12 12:06:52;;;;;;;11.85;7.05;;;;;;;22.00;28.83;99926.66;5048645;28;20408;-50
2021/04/12 12:09:30;;;;;;;12.85;7.20;;;;;;;21.26;29.68;99924.25;5048489;28;20032;-51
2021/04/12 12:12:17;;;;;;;13.93;7.20;;;;;;;21.94;28.97;99919.66;5048762;28;20037;-50
2021/04/12 12:14:46;;;;;;;12.35;6.45;;;;;;;22.00;28.57;99910.41;5048998;28;20112;-53
2021/04/12 12:17:27;;;;;;;9.60;6.73;;;;;;;21.64;29.18;99905.06;5050080;28;20516;-48
2021/04/12 12:19:55;;;;;;;10.32;7.15;;;;;;;21.99;28.82;99912.31;5032075;28;20025;-51
2021/04/12 12:22:46;;;;;;;10.38;6.38;;;;;;;22.00;29.22;99905.00;5032055;28;20021;-51
2021/04/12 12:25:33;;;;;;;12.25;6.32;;;;;;;21.65;29.27;99909.41;5033246;28;20025;-52
2021/04/12 12:28:04;;;;;;;9.85;5.80;;;;;;;22.13;28.77;99893.56;5033118;28;20020;-51
2021/04/12 12:30:33;;;;;;;9.27;6.10;;;;;;;22.31;28.36;99894.88;5032191;28;20021;-50
2021/04/12 12:33:06;;;;;;;12.20;5.80;;;;;;;22.13;29.19;99890.88;5031721;28;20112;-52
2021/04/12 12:35:57;;;;;;;7.93;6.05;;;;;;;22.59;29.09;99873.59;5048018;28;20025;-51
2021/04/12 12:38:46;;;;;;;11.27;6.35;;;;;;;23.35;27.89;99876.88;5032540;28;20025;-52
2021/04/12 12:41:23;;;;;;;11.15;5.85;;;;;;;22.92;27.75;99863.88;5037320;28;20370;-51
2021/04/12 12:43:48;;;;;;;12.07;5.28;;;;;;;22.78;27.81;99865.63;5048210;28;20433;-49